createdAt,value
2023-05-09T00:02:17.840Z,101196.28
2023-05-09T00:04:45.615Z,101193.41
2023-05-09T00:07:12.854Z,101156.59
2023-05-09T00:09:41.607Z,101176.75
2023-05-09T00:12:09.184Z,101173.44
2023-05-09T00:14:37.097Z,101187.69
2023-05-09T00:17:03.966Z,101193.72
2023-05-09T00:19:31.583Z,101176.13
2023-05-09T00:21:58.695Z,101196.00
2023-05-09T00:24:26.001Z,101191.78
2023-05-09T00:26:54.368Z,101197.94
2023-05-09T00:29:21.645Z,101170.91
2023-05-09T00:31:48.555Z,101149.44
2023-05-09T00:34:17.302Z,101197.09
2023-05-09T00:36:44.436Z,101164.06
2023-05-09T00:39:12.579Z,101187.81
2023-05-09T00:41:39.586Z,101185.06
2023-05-09T00:44:08.461Z,101204.97
2023-05-09T00:46:35.901Z,101197.25
2023-05-09T00:49:04.465Z,101201.59
2023-05-09T00:51:32.697Z,101177.09
2023-05-09T00:54:00.330Z,101199.31
2023-05-09T00:56:27.506Z,101150.22
2023-05-09T00:58:55.755Z,101205.72
2023-05-09T01:01:24.554Z,101216.75
2023-05-09T01:03:52.262Z,101206.72
2023-05-09T01:06:29.051Z,101147.38
2023-05-09T01:09:02.725Z,101214.09
2023-05-09T01:11:37.981Z,101207.31
2023-05-09T01:14:12.586Z,101169.78
2023-05-09T01:16:46.304Z,101185.50
2023-05-09T01:19:34.064Z,101214.94
2023-05-09T01:22:04.283Z,101172.59
2023-05-09T01:24:49.949Z,101206.13
2023-05-09T01:27:28.809Z,101205.03
2023-05-09T01:29:59.631Z,101203.84
2023-05-09T01:32:30.560Z,101180.19
2023-05-09T01:35:02.902Z,101196.72
2023-05-09T01:37:33.048Z,101197.69
2023-05-09T01:40:07.029Z,101200.34
2023-05-09T01:42:41.376Z,101198.41
2023-05-09T01:45:12.628Z,101204.31
2023-05-09T01:47:41.874Z,101190.81
2023-05-09T01:50:11.739Z,101198.91
2023-05-09T01:52:41.830Z,101178.72
2023-05-09T01:55:12.554Z,101128.56
2023-05-09T01:57:40.547Z,101175.59
2023-05-09T02:00:13.294Z,101182.34
2023-05-09T02:02:41.542Z,101166.19
2023-05-09T02:05:10.690Z,101209.03
2023-05-09T02:07:39.701Z,101208.06
2023-05-09T02:10:09.046Z,101208.06
2023-05-09T02:12:36.163Z,101190.59
2023-05-09T02:15:04.015Z,101209.03
2023-05-09T02:17:32.480Z,101203.84
2023-05-09T02:19:59.970Z,101183.34
2023-05-09T02:22:27.434Z,101206.00
2023-05-09T02:24:54.887Z,101210.50
2023-05-09T02:27:22.579Z,101205.66
2023-05-09T02:29:55.135Z,101158.84
2023-05-09T02:32:25.752Z,101209.66
2023-05-09T02:34:59.063Z,101164.13
2023-05-09T02:37:31.344Z,101178.50
2023-05-09T02:39:58.725Z,101117.25
2023-05-09T02:42:29.197Z,101189.34
2023-05-09T02:45:01.035Z,101185.09
2023-05-09T02:47:28.005Z,101196.88
2023-05-09T02:49:56.728Z,101193.94
2023-05-09T02:52:23.647Z,101201.66
2023-05-09T02:54:51.073Z,101209.34
2023-05-09T02:57:18.094Z,101210.44
2023-05-09T02:59:47.088Z,101203.56
2023-05-09T03:02:14.233Z,101172.94
2023-05-09T03:04:41.997Z,101215.22
2023-05-09T03:07:10.487Z,101197.59
2023-05-09T03:09:40.424Z,101222.22
2023-05-09T03:12:09.723Z,101229.81
2023-05-09T03:14:37.024Z,101223.59
2023-05-09T03:17:04.025Z,101175.09
2023-05-09T03:19:32.362Z,101221.84
2023-05-09T03:21:59.431Z,101209.72
2023-05-09T03:24:28.519Z,101228.16
2023-05-09T03:26:55.603Z,101236.97
2023-05-09T03:29:24.554Z,101217.66
2023-05-09T03:31:51.973Z,101215.47
2023-05-09T03:34:19.245Z,101233.25
2023-05-09T03:36:53.676Z,101236.72
2023-05-09T03:39:23.967Z,101233.72
2023-05-09T03:41:52.303Z,101212.03
2023-05-09T03:44:19.589Z,101216.75
2023-05-09T03:46:48.453Z,101244.09
2023-05-09T03:49:15.869Z,101248.44
2023-05-09T03:51:42.967Z,101248.44
2023-05-09T03:54:10.517Z,101244.75
2023-05-09T03:56:37.604Z,101245.38
2023-05-09T03:59:06.467Z,101253.22
2023-05-09T04:01:34.040Z,101212.16
2023-05-09T04:04:01.512Z,101250.41
2023-05-09T04:06:30.117Z,101204.34
2023-05-09T04:08:57.570Z,101262.38
2023-05-09T04:11:27.012Z,101259.00
2023-05-09T04:14:00.045Z,101261.41
2023-05-09T04:16:28.586Z,101262.03
2023-05-09T04:19:03.589Z,101256.84
2023-05-09T04:21:33.797Z,101232.56
2023-05-09T04:24:01.368Z,101259.72
2023-05-09T04:26:28.323Z,101262.38
2023-05-09T04:29:02.529Z,101260.63
2023-05-09T04:31:31.777Z,101260.78
2023-05-09T04:33:59.177Z,101246.22
2023-05-09T04:36:27.731Z,101232.28
2023-05-09T04:38:56.228Z,101262.75
2023-05-09T04:41:24.156Z,101267.88
2023-05-09T04:43:52.438Z,101241.00
2023-05-09T04:46:25.887Z,101269.38
2023-05-09T04:48:54.619Z,101246.28
2023-05-09T04:51:21.632Z,101268.59
2023-05-09T04:53:48.992Z,101282.16
2023-05-09T04:56:16.036Z,101274.69
2023-05-09T04:58:46.572Z,101270.44
2023-05-09T05:01:21.992Z,101287.28
2023-05-09T05:03:49.519Z,101287.06
2023-05-09T05:06:18.186Z,101228.78
2023-05-09T05:08:45.592Z,101284.97
2023-05-09T05:11:13.729Z,101281.19
2023-05-09T05:13:43.734Z,101269.63
2023-05-09T05:16:10.944Z,101274.69
2023-05-09T05:18:38.660Z,101254.59
2023-05-09T05:21:05.682Z,101284.50
2023-05-09T05:23:34.567Z,101283.50
2023-05-09T05:26:01.532Z,101197.06
2023-05-09T05:28:28.893Z,101194.16
2023-05-09T05:30:56.408Z,101220.19
2023-05-09T05:33:25.628Z,101203.75
2023-05-09T05:35:58.855Z,101287.97
2023-05-09T05:38:26.607Z,101252.97
2023-05-09T05:40:55.149Z,101288.84
2023-05-09T05:43:22.884Z,101287.72
2023-05-09T05:45:50.218Z,101277.16
2023-05-09T05:48:18.442Z,101293.28
2023-05-09T05:50:45.610Z,101284.31
2023-05-09T05:53:13.703Z,101190.75
2023-05-09T05:55:44.282Z,101259.78
2023-05-09T05:58:17.637Z,101230.22
2023-05-09T06:00:45.064Z,101208.34
2023-05-09T06:03:14.646Z,101248.28
2023-05-09T06:05:43.124Z,101293.50
2023-05-09T06:08:17.036Z,101258.53
2023-05-09T06:10:46.911Z,101241.19
2023-05-09T06:13:14.560Z,101257.16
2023-05-09T06:15:43.936Z,101220.69
2023-05-09T06:18:13.555Z,101302.00
2023-05-09T06:20:40.962Z,101278.34
2023-05-09T06:23:08.386Z,101298.63
2023-05-09T06:25:37.153Z,101233.66
2023-05-09T06:28:04.837Z,101246.50
2023-05-09T06:30:32.025Z,101311.09
2023-05-09T06:33:00.899Z,101233.84
2023-05-09T06:35:27.952Z,101305.69
2023-05-09T06:37:55.295Z,101216.56
2023-05-09T06:40:22.515Z,101310.34
2023-05-09T06:42:50.055Z,101239.00
2023-05-09T06:45:17.483Z,101249.25
2023-05-09T06:47:45.248Z,101231.44
2023-05-09T06:50:13.908Z,101318.09
2023-05-09T06:52:41.482Z,101314.94
2023-05-09T06:55:11.301Z,101315.66
2023-05-09T06:57:40.607Z,101231.13
2023-05-09T07:00:12.484Z,101315.50
2023-05-09T07:02:43.400Z,101163.81
2023-05-09T07:05:13.953Z,101318.31
2023-05-09T07:07:41.397Z,101314.03
2023-05-09T07:10:11.843Z,101318.72
2023-05-09T07:12:40.235Z,101205.31
2023-05-09T07:15:09.294Z,101260.53
2023-05-09T07:17:43.216Z,101171.53
2023-05-09T07:20:15.062Z,101238.00
2023-05-09T07:22:46.724Z,101203.84
2023-05-09T07:25:14.015Z,101303.66
2023-05-09T07:27:44.697Z,101320.91
2023-05-09T07:30:14.899Z,101251.72
2023-05-09T07:32:44.849Z,101256.84
2023-05-09T07:35:12.064Z,101294.78
2023-05-09T07:37:40.618Z,101315.06
2023-05-09T07:40:10.356Z,101328.84
2023-05-09T07:42:38.417Z,101275.72
2023-05-09T07:45:06.627Z,101323.88
2023-05-09T07:47:34.129Z,101254.63
2023-05-09T07:50:02.633Z,101317.56
2023-05-09T07:52:31.479Z,101311.53
2023-05-09T07:55:04.168Z,101313.19
2023-05-09T07:57:32.937Z,101316.63
2023-05-09T08:00:00.115Z,101316.00
2023-05-09T08:02:30.021Z,101325.06
2023-05-09T08:04:58.297Z,101253.97
2023-05-09T08:07:34.604Z,101315.16
2023-05-09T08:10:02.712Z,101238.78
2023-05-09T08:12:37.392Z,101316.63
2023-05-09T08:15:10.908Z,101234.41
2023-05-09T08:17:43.613Z,101232.50
2023-05-09T08:20:12.062Z,101317.59
2023-05-09T08:22:40.300Z,101308.50
2023-05-09T08:25:11.004Z,101306.69
2023-05-09T08:27:41.022Z,101234.84
2023-05-09T08:30:12.124Z,101289.19
2023-05-09T08:32:40.679Z,101310.06
2023-05-09T08:35:09.133Z,101176.69
2023-05-09T08:37:36.559Z,101238.72
2023-05-09T08:40:07.870Z,101312.34
2023-05-09T08:42:37.191Z,101244.59
2023-05-09T08:45:09.716Z,101316.91
2023-05-09T08:47:38.108Z,101210.75
2023-05-09T08:50:09.938Z,101312.84
2023-05-09T08:52:37.455Z,101310.34
2023-05-09T08:55:05.463Z,101299.00
2023-05-09T08:57:38.306Z,101254.19
2023-05-09T09:00:17.889Z,101222.78
2023-05-09T09:02:51.264Z,101232.09
2023-05-09T09:05:39.948Z,101292.25
2023-05-09T09:08:09.241Z,101268.22
2023-05-09T09:10:48.427Z,101197.50
2023-05-09T09:13:19.142Z,101263.84
2023-05-09T09:15:51.208Z,101253.44
2023-05-09T09:18:22.676Z,101283.53
2023-05-09T09:20:58.923Z,101276.78
2023-05-09T09:23:27.763Z,101281.34
2023-05-09T09:25:59.711Z,101231.25
2023-05-09T09:28:28.118Z,101185.84
2023-05-09T09:30:56.916Z,101283.97
2023-05-09T09:33:25.172Z,101281.53
2023-05-09T09:35:56.536Z,101274.56
2023-05-09T09:38:25.668Z,101195.25
2023-05-09T09:40:56.334Z,101175.03
2023-05-09T09:43:30.959Z,101223.25
2023-05-09T09:46:04.956Z,101266.00
2023-05-09T09:48:34.002Z,101198.16
2023-05-09T09:51:09.598Z,101224.28
2023-05-09T09:53:42.390Z,101251.00
2023-05-09T09:56:14.685Z,101260.34
2023-05-09T09:58:42.543Z,101238.09
2023-05-09T10:01:17.028Z,101225.84
2023-05-09T10:03:48.119Z,101255.41
2023-05-09T10:06:17.776Z,101263.94
2023-05-09T10:08:53.132Z,101257.09
2023-05-09T10:11:21.728Z,101253.41
2023-05-09T10:13:52.656Z,101249.19
2023-05-09T10:16:42.521Z,101242.94
2023-05-09T10:19:18.249Z,101231.69
2023-05-09T10:21:49.702Z,101233.38
2023-05-09T10:24:22.896Z,101207.44
2023-05-09T10:26:53.050Z,101225.69
2023-05-09T10:29:25.423Z,101243.91
2023-05-09T10:31:59.941Z,101219.06
2023-05-09T10:34:32.841Z,101175.59
2023-05-09T10:37:00.793Z,101235.34
2023-05-09T10:39:30.673Z,101237.00
2023-05-09T10:42:05.146Z,101184.63
2023-05-09T10:44:33.255Z,101198.81
2023-05-09T10:47:02.826Z,101228.75
2023-05-09T10:49:30.893Z,101146.16
2023-05-09T10:51:58.223Z,101216.84
2023-05-09T10:54:30.935Z,101223.03
2023-05-09T10:56:58.532Z,101227.22
2023-05-09T11:03:19.792Z,101225.19
2023-05-09T11:05:48.839Z,101220.09
2023-05-09T11:08:19.552Z,101220.75
2023-05-09T11:10:47.809Z,101201.81
2023-05-09T11:13:19.722Z,101122.38
2023-05-09T11:16:03.448Z,101205.22
2023-05-09T11:18:35.785Z,101202.91
2023-05-09T11:21:08.757Z,101190.75
2023-05-09T11:23:39.077Z,101116.38
2023-05-09T11:26:07.907Z,101200.00
2023-05-09T11:28:36.667Z,101201.69
2023-05-09T11:31:14.349Z,101047.03
2023-05-09T11:33:49.171Z,101172.13
2023-05-09T11:36:25.205Z,101121.84
2023-05-09T11:39:16.314Z,101196.41
2023-05-09T11:41:47.140Z,101101.56
2023-05-09T11:44:18.556Z,101120.94
2023-05-09T11:46:47.265Z,101144.13
2023-05-09T11:49:20.509Z,101183.03
2023-05-09T11:51:52.302Z,101181.22
2023-05-09T11:54:19.621Z,101105.03
2023-05-09T11:56:49.402Z,101096.28
2023-05-09T11:59:21.241Z,101108.28
2023-05-09T12:01:54.653Z,101180.31
2023-05-09T12:04:23.228Z,101100.44
2023-05-09T12:06:57.465Z,101168.50
2023-05-09T12:09:25.931Z,101168.03
2023-05-09T12:11:53.226Z,101171.00
2023-05-09T12:14:32.529Z,101080.81
2023-05-09T12:17:00.111Z,101090.97
2023-05-09T12:19:30.722Z,101113.31
2023-05-09T12:22:03.984Z,101061.38
2023-05-09T12:24:32.281Z,101063.22
2023-05-09T12:27:01.337Z,101121.69
2023-05-09T12:29:35.786Z,101146.16
2023-05-09T12:32:05.880Z,101151.00
2023-05-09T12:34:38.494Z,101088.22
2023-05-09T12:37:16.230Z,101050.81
2023-05-09T12:40:00.871Z,101021.78
2023-05-09T12:42:29.177Z,101099.31
2023-05-09T12:45:00.346Z,101052.44
2023-05-09T12:47:29.798Z,101126.31
2023-05-09T12:50:13.730Z,101055.84
2023-05-09T12:53:02.835Z,101117.03
2023-05-09T12:55:32.783Z,101042.22
2023-05-09T12:58:03.506Z,101094.97
2023-05-09T13:00:42.566Z,101124.19
2023-05-09T13:03:21.379Z,101117.88
2023-05-09T13:05:57.352Z,101051.91
2023-05-09T13:08:25.356Z,101105.41
2023-05-09T13:10:57.869Z,101034.91
2023-05-09T13:13:34.379Z,101003.50
2023-05-09T13:16:04.799Z,101103.94
2023-05-09T13:18:34.072Z,101033.91
2023-05-09T13:21:02.524Z,101017.88
2023-05-09T13:23:29.992Z,100940.81
2023-05-09T13:25:57.070Z,101026.53
2023-05-09T13:28:24.340Z,101098.50
2023-05-09T13:30:51.328Z,101020.44
2023-05-09T13:35:51.374Z,101086.50
2023-05-09T13:38:20.271Z,101071.63
2023-05-09T13:40:50.196Z,101029.84
2023-05-09T13:43:17.597Z,101040.31
2023-05-09T13:45:44.797Z,101105.09
2023-05-09T13:48:12.350Z,101108.16
2023-05-09T13:50:39.513Z,101105.34
2023-05-09T13:53:06.800Z,101107.38
2023-05-09T13:55:38.307Z,101024.41
2023-05-09T13:58:07.801Z,101094.88
2023-05-09T14:00:36.753Z,101043.03
2023-05-09T14:03:07.589Z,101120.78
2023-05-09T14:05:34.716Z,101104.13
2023-05-09T14:08:02.016Z,101112.72
2023-05-09T14:10:31.706Z,101094.03
2023-05-09T14:13:02.456Z,101096.22
2023-05-09T14:15:35.505Z,101110.50
2023-05-09T14:18:03.879Z,101117.53
2023-05-09T14:23:19.892Z,101098.19
2023-05-09T14:25:47.035Z,101109.75
2023-05-09T14:28:17.764Z,101114.28
2023-05-09T14:30:48.566Z,101098.34
2023-05-09T14:33:16.199Z,101116.78
2023-05-09T14:35:44.302Z,101121.00
2023-05-09T14:38:13.250Z,101102.34
2023-05-09T14:40:42.921Z,101105.22
2023-05-09T14:43:13.224Z,101000.22
2023-05-09T14:45:44.383Z,101051.75
2023-05-09T14:48:15.859Z,101118.78
2023-05-09T14:50:43.944Z,101106.38
2023-05-09T14:53:13.300Z,101123.00
2023-05-09T14:55:42.587Z,101089.94
2023-05-09T14:58:09.862Z,101091.47
2023-05-09T15:00:37.070Z,101107.28
2023-05-09T15:03:08.178Z,101125.56
2023-05-09T15:05:38.984Z,101100.91
2023-05-09T15:08:08.920Z,101084.13
2023-05-09T15:10:35.949Z,101107.31
2023-05-09T15:13:08.525Z,101104.47
2023-05-09T15:15:38.318Z,101101.59
2023-05-09T15:18:12.354Z,101104.13
2023-05-09T15:20:39.967Z,101088.34
2023-05-09T15:23:08.023Z,101084.31
2023-05-09T15:25:36.579Z,101103.97
2023-05-09T15:28:04.393Z,101099.28
2023-05-09T15:30:31.655Z,101104.13
2023-05-09T15:33:01.964Z,101009.78
2023-05-09T15:35:31.486Z,101086.50
2023-05-09T15:38:04.214Z,101029.09
2023-05-09T15:40:39.794Z,101027.94
2023-05-09T15:43:09.515Z,101078.63
2023-05-09T15:45:45.470Z,101001.78
2023-05-09T15:48:15.084Z,101028.47
2023-05-09T15:50:45.959Z,101078.25
2023-05-09T15:53:18.123Z,101069.22
2023-05-09T15:55:48.623Z,101034.81
2023-05-09T15:58:24.536Z,100993.75
2023-05-09T16:00:51.974Z,100999.75
2023-05-09T16:03:22.923Z,101063.34
2023-05-09T16:05:53.073Z,100975.75
2023-05-09T16:08:21.499Z,100985.66
2023-05-09T16:10:50.560Z,101051.44
2023-05-09T16:13:20.577Z,101061.84
2023-05-09T16:15:59.406Z,101051.94
2023-05-09T16:18:31.017Z,100969.59
2023-05-09T16:21:03.264Z,100999.94
2023-05-09T16:23:36.604Z,101057.97
2023-05-09T16:26:04.482Z,101033.31
2023-05-09T16:28:33.750Z,100998.28
2023-05-09T16:31:05.041Z,101028.94
2023-05-09T16:33:44.394Z,101064.03
2023-05-09T16:36:22.750Z,101017.56
2023-05-09T16:39:01.360Z,100987.53
2023-05-09T16:41:37.971Z,100974.09
2023-05-09T16:44:06.736Z,101060.50
2023-05-09T16:46:43.856Z,100990.53
2023-05-09T16:49:14.149Z,101060.31
2023-05-09T16:51:51.360Z,100958.16
2023-05-09T16:54:22.000Z,101005.31
2023-05-09T16:56:51.594Z,100973.75
2023-05-09T16:59:22.030Z,100939.53
2023-05-09T17:02:08.618Z,101040.03
2023-05-09T17:04:49.812Z,101056.97
2023-05-09T17:07:20.218Z,100989.38
2023-05-09T17:09:49.959Z,101000.25
2023-05-09T17:12:19.395Z,100976.53
2023-05-09T17:14:51.412Z,101061.31
2023-05-09T17:17:19.373Z,100981.69
2023-05-09T17:19:48.508Z,100986.69
2023-05-09T17:22:17.739Z,101067.28
2023-05-09T17:24:47.251Z,101050.13
2023-05-09T17:27:17.016Z,101038.31
2023-05-09T17:29:44.445Z,100894.41
2023-05-09T17:32:11.542Z,100992.13
2023-05-09T17:34:39.335Z,100992.09
2023-05-09T17:37:07.310Z,101056.84
2023-05-09T17:39:34.969Z,100996.00
2023-05-09T17:42:03.738Z,100981.69
2023-05-09T17:44:36.454Z,100994.25
2023-05-09T17:47:03.735Z,100967.28
2023-05-09T17:49:37.475Z,101070.41
2023-05-09T17:52:05.473Z,100988.34
2023-05-09T17:54:42.184Z,100998.63
2023-05-09T17:57:12.604Z,101030.56
2023-05-09T17:59:52.006Z,101083.56
2023-05-09T18:02:26.789Z,101004.31
2023-05-09T18:04:55.080Z,101060.84
2023-05-09T18:07:23.452Z,101088.31
2023-05-09T18:09:52.252Z,100990.16
2023-05-09T18:12:36.323Z,101011.94
2023-05-09T18:15:10.335Z,100985.78
2023-05-09T18:17:37.987Z,101027.16
2023-05-09T18:20:11.296Z,101028.66
2023-05-09T18:22:43.927Z,101054.44
2023-05-09T18:25:14.488Z,101014.72
2023-05-09T18:27:43.762Z,101014.34
2023-05-09T18:30:16.686Z,101024.06
2023-05-09T18:32:45.249Z,101093.94
2023-05-09T18:35:12.930Z,101110.91
2023-05-09T18:37:43.121Z,101079.84
2023-05-09T18:40:18.719Z,101119.38
2023-05-09T18:42:51.841Z,101114.63
2023-05-09T18:45:22.434Z,101045.22
2023-05-09T18:47:50.186Z,101050.16
2023-05-09T18:50:19.243Z,101115.56
2023-05-09T18:52:46.539Z,101127.91
2023-05-09T18:55:16.631Z,101121.03
2023-05-09T18:57:45.260Z,101045.50
2023-05-09T19:00:16.257Z,101123.34
2023-05-09T19:02:44.424Z,101032.63
2023-05-09T19:05:12.522Z,101045.72
2023-05-09T19:07:47.790Z,101090.19
2023-05-09T19:13:16.050Z,101113.09
2023-05-09T19:16:07.706Z,101129.50
2023-05-09T19:18:38.628Z,101059.09
2023-05-09T19:21:06.838Z,101124.75
2023-05-09T19:23:41.600Z,101036.78
2023-05-09T19:26:09.905Z,101045.06
2023-05-09T19:29:12.543Z,101123.59
2023-05-09T19:31:43.876Z,101053.91
2023-05-09T19:34:14.687Z,101053.38
2023-05-09T19:36:46.367Z,101104.47
2023-05-09T19:39:17.664Z,101129.88
2023-05-09T19:41:48.991Z,101046.81
2023-05-09T19:44:19.143Z,101122.75
2023-05-09T19:46:51.213Z,101123.31
2023-05-09T19:49:26.655Z,101043.75
2023-05-09T19:52:17.584Z,101096.75
2023-05-09T19:54:54.444Z,101029.44
2023-05-09T19:57:34.926Z,101006.84
2023-05-09T20:02:50.527Z,101103.94
2023-05-09T20:05:17.868Z,101029.28
2023-05-09T20:08:00.740Z,100954.81
2023-05-09T20:10:48.926Z,101117.41
2023-05-09T20:13:22.422Z,101002.91
2023-05-09T20:15:54.669Z,101036.16
2023-05-09T20:18:28.055Z,101028.31
2023-05-09T20:20:56.646Z,101038.53
2023-05-09T20:23:30.085Z,100984.25
2023-05-09T20:26:00.244Z,101019.19
2023-05-09T20:28:30.285Z,100997.56
2023-05-09T20:31:05.143Z,101099.44
2023-05-09T20:33:38.103Z,101074.06
2023-05-09T20:36:12.634Z,101017.09
2023-05-09T20:38:53.332Z,101029.16
2023-05-09T20:41:27.886Z,101013.44
2023-05-09T20:44:20.057Z,101106.63
2023-05-09T20:46:53.943Z,100979.03
2023-05-09T20:49:34.074Z,101021.00
2023-05-09T20:52:09.707Z,101024.41
2023-05-09T20:58:14.909Z,100991.50
2023-05-09T21:01:14.081Z,101101.44
2023-05-09T21:03:57.333Z,101100.72
2023-05-09T21:06:57.944Z,100991.75
2023-05-09T21:09:33.281Z,101028.53
2023-05-09T21:12:12.454Z,100993.44
2023-05-09T21:14:41.924Z,101018.00
2023-05-09T21:17:10.650Z,101105.19
2023-05-09T21:19:45.504Z,101000.28
2023-05-09T21:22:17.287Z,101055.91
2023-05-09T21:24:48.959Z,101075.00
2023-05-09T21:27:18.493Z,101026.25
2023-05-09T21:29:52.268Z,100999.84
2023-05-09T21:32:19.644Z,101093.38
2023-05-09T21:34:51.474Z,100996.34
2023-05-09T21:37:21.675Z,101096.03
2023-05-09T21:39:58.128Z,101094.88
2023-05-09T21:42:38.009Z,101062.41
2023-05-09T21:45:09.389Z,101017.59
2023-05-09T21:47:40.222Z,101004.53
2023-05-09T21:50:10.418Z,101107.41
2023-05-09T21:52:39.139Z,101101.53
2023-05-09T21:55:09.257Z,101093.91
2023-05-09T21:57:36.329Z,101108.63
2023-05-09T22:00:16.760Z,101086.84
2023-05-09T22:02:47.948Z,100981.13
2023-05-09T22:05:24.933Z,101054.97
2023-05-09T22:08:00.464Z,101002.03
2023-05-09T22:10:47.616Z,101008.91
2023-05-09T22:13:21.151Z,101013.81
2023-05-09T22:15:54.341Z,100987.28
2023-05-09T22:18:28.464Z,101095.72
2023-05-09T22:20:59.059Z,101000.78
2023-05-09T22:23:44.116Z,101094.47
2023-05-09T22:26:17.379Z,101012.00
2023-05-09T22:28:57.609Z,100943.72
2023-05-09T22:31:41.570Z,101088.84
2023-05-09T22:34:12.653Z,101048.63
2023-05-09T22:36:42.027Z,100987.47
2023-05-09T22:39:14.591Z,101004.34
2023-05-09T22:41:44.171Z,101037.81
2023-05-09T22:44:12.113Z,100978.78
2023-05-09T22:46:48.099Z,100979.63
2023-05-09T22:49:19.529Z,101078.91
2023-05-09T22:51:49.625Z,100978.44
2023-05-09T22:54:21.682Z,100964.59
2023-05-09T22:56:49.948Z,100972.84
2023-05-09T22:59:19.233Z,100969.31
2023-05-09T23:01:53.772Z,100967.34
2023-05-09T23:04:22.155Z,100950.16
2023-05-09T23:06:49.550Z,100977.97
2023-05-09T23:09:18.465Z,100908.44
2023-05-09T23:11:47.432Z,101059.25
2023-05-09T23:14:18.810Z,101052.09
2023-05-09T23:16:48.557Z,100971.16
2023-05-09T23:19:17.359Z,101055.59
2023-05-09T23:21:47.507Z,101008.22
2023-05-09T23:24:16.245Z,100958.63
2023-05-09T23:26:45.252Z,100991.09
2023-05-09T23:29:13.777Z,101015.22
2023-05-09T23:31:43.362Z,101006.06
2023-05-09T23:34:12.392Z,100951.31
2023-05-09T23:36:39.645Z,100952.88
2023-05-09T23:39:07.223Z,101041.06
2023-05-09T23:41:35.597Z,100990.75
2023-05-09T23:44:04.750Z,100991.03
2023-05-09T23:46:32.598Z,100976.59
2023-05-09T23:49:00.429Z,100913.41
2023-05-09T23:51:28.805Z,100935.81
2023-05-09T23:54:04.140Z,100929.78
2023-05-09T23:56:32.994Z,100950.47
2023-05-09T23:59:09.930Z,101021.63
